Putnam Township, Michigan
Current Conditions -  °F | °C
As of 7:35 PM on Sunday 21 Dec 2014 (Local Time) from KOZW Reporting Station
Overcast Overcast  
Wind Chill: 22°   Ceiling: 5000
Heat Index: 31°   Visibility: 7mi
Dew Point: 25°   Wind: 10mph
Humidity: 79%   Direction: 130°SE
Pressure: 30.19"   Gusts: NA
Location:  42.4646°N, 83.948°W
Report Text: KOZW 220035Z AUTO 13009KT 7SM OVC050 M01/M04 A3019 RMK AO2 T10071039
Loading
Personal Weather Stations






























Interactive Weather Map New forecast layout! Learn more

10-Day Weather Forecast

Advertisements
Track Severe Weather on mobile